Time;durP1;ratioP1;P1;durP2;ratioP2;P2;SDS_P1;SDS_P2;PMS_P1;PMS_P2;Temp;Humidity;BMP_temperature;BMP_pressure;BME280_temperature;BME280_humidity;BME280_pressure;Samples;Min_cycle;Max_cycle;Signal;HPM_P1;HPM_P2
2024/01/13 00:02:38;;;;;;;27.57;11.57;;;-0.20;99.90;;;;;;5032854;28;20203;-83
2024/01/13 00:05:25;;;;;;;28.30;12.40;;;-0.20;99.90;;;;;;5034580;28;20238;-83
2024/01/13 00:08:12;;;;;;;25.70;12.30;;;-0.20;99.90;;;;;;5033978;28;20706;-83
2024/01/13 00:11:12;;;;;;;26.10;11.53;;;-0.20;99.90;;;;;;5031837;28;20222;-84
2024/01/13 00:13:59;;;;;;;26.97;12.30;;;-0.20;99.90;;;;;;5032992;28;20195;-84
2024/01/13 00:16:47;;;;;;;25.47;11.93;;;-0.20;99.90;;;;;;5033872;28;20292;-84
2024/01/13 00:19:34;;;;;;;24.17;11.20;;;-0.20;99.90;;;;;;5045907;28;20195;-83
2024/01/13 00:22:22;;;;;;;21.53;11.23;;;-0.20;99.90;;;;;;5037550;28;20207;-82
2024/01/13 00:25:09;;;;;;;23.87;11.07;;;-0.10;99.90;;;;;;5033817;28;20607;-84
2024/01/13 00:27:57;;;;;;;20.43;10.33;;;-0.20;99.90;;;;;;5033456;28;20287;-84
2024/01/13 00:30:44;;;;;;;23.90;10.73;;;-0.10;99.90;;;;;;5031380;28;20289;-84
2024/01/13 00:33:32;;;;;;;21.40;10.40;;;-0.10;99.90;;;;;;5033522;28;20198;-83
2024/01/13 00:36:20;;;;;;;20.57;10.40;;;-0.20;99.90;;;;;;5032455;28;20202;-84
2024/01/13 00:39:07;;;;;;;20.80;10.10;;;-0.10;99.90;;;;;;5030709;28;20195;-84
2024/01/13 00:41:55;;;;;;;22.30;10.00;;;-0.10;99.90;;;;;;5031565;28;20674;-84
2024/01/13 00:44:42;;;;;;;20.47;10.00;;;-0.10;99.90;;;;;;5031628;28;20205;-85
2024/01/13 00:47:30;;;;;;;21.90;9.87;;;-0.20;99.90;;;;;;5032221;28;20673;-84
2024/01/13 00:50:19;;;;;;;20.50;9.37;;;-0.20;99.90;;;;;;5032011;28;20272;-84
2024/01/13 00:53:07;;;;;;;22.83;10.60;;;-0.10;99.90;;;;;;5031046;28;20239;-84
2024/01/13 00:55:54;;;;;;;20.80;9.60;;;-0.20;99.90;;;;;;5030552;28;20205;-84
2024/01/13 00:58:42;;;;;;;20.37;9.53;;;-0.10;99.90;;;;;;5030573;28;20201;-84
2024/01/13 01:01:32;;;;;;;20.43;9.00;;;-0.20;99.90;;;;;;5030606;28;20204;-85
2024/01/13 01:04:19;;;;;;;22.00;9.57;;;-0.20;99.90;;;;;;5031473;28;20316;-85
2024/01/13 01:07:06;;;;;;;21.50;10.23;;;-0.20;99.90;;;;;;5030929;28;20198;-85
2024/01/13 01:09:54;;;;;;;23.47;10.23;;;-0.20;99.90;;;;;;5031474;28;20203;-84
2024/01/13 01:12:41;;;;;;;22.57;10.17;;;-0.10;99.90;;;;;;5031872;28;20620;-84
2024/01/13 01:15:28;;;;;;;20.43;9.80;;;-0.10;99.90;;;;;;5031920;28;20597;-84
2024/01/13 01:18:16;;;;;;;21.10;10.20;;;-0.10;99.90;;;;;;5031004;28;20610;-85
2024/01/13 01:21:12;;;;;;;22.17;9.67;;;-0.10;99.90;;;;;;5031435;28;20585;-84
2024/01/13 01:24:00;;;;;;;22.00;9.63;;;0.00;99.90;;;;;;5031663;28;20219;-84
2024/01/13 01:26:47;;;;;;;18.20;9.27;;;0.00;99.90;;;;;;5034735;28;20215;-84
2024/01/13 01:29:34;;;;;;;22.93;9.83;;;-0.10;99.90;;;;;;5035232;28;20683;-84
2024/01/13 01:32:22;;;;;;;20.90;9.93;;;0.00;99.90;;;;;;5035090;28;20683;-84
2024/01/13 01:35:09;;;;;;;22.87;9.97;;;0.00;99.90;;;;;;5034832;28;20674;-84
2024/01/13 01:37:56;;;;;;;20.63;9.90;;;0.10;99.90;;;;;;5035346;28;20198;-84
2024/01/13 01:40:52;;;;;;;20.20;9.67;;;0.00;99.90;;;;;;5035320;28;20252;-84
2024/01/13 01:43:42;;;;;;;19.93;9.50;;;0.00;99.90;;;;;;5033864;28;20292;-84
2024/01/13 01:46:31;;;;;;;18.87;9.03;;;0.00;99.90;;;;;;5034954;28;20234;-84
2024/01/13 01:49:19;;;;;;;17.40;8.97;;;0.00;99.90;;;;;;5034656;28;20199;-84
2024/01/13 01:52:06;;;;;;;19.60;9.37;;;0.00;99.90;;;;;;5034785;28;20305;-85
2024/01/13 01:54:54;;;;;;;19.10;8.67;;;0.00;99.90;;;;;;5034743;28;20274;-85
2024/01/13 01:57:41;;;;;;;18.27;9.00;;;0.00;99.90;;;;;;5034267;28;20249;-85
2024/01/13 02:00:29;;;;;;;19.13;9.47;;;0.00;99.90;;;;;;5033119;28;20200;-85
2024/01/13 02:03:18;;;;;;;15.40;8.40;;;0.00;99.90;;;;;;5034461;28;20207;-84
2024/01/13 02:06:06;;;;;;;16.13;8.33;;;0.00;99.90;;;;;;5034742;28;20188;-85
2024/01/13 02:08:54;;;;;;;16.57;8.33;;;0.00;99.90;;;;;;5034592;28;20666;-84
2024/01/13 02:11:41;;;;;;;17.70;8.57;;;0.00;99.90;;;;;;5033633;28;20233;-84
2024/01/13 02:14:29;;;;;;;17.03;8.73;;;0.00;99.90;;;;;;5034463;28;20202;-85
2024/01/13 02:17:16;;;;;;;17.03;8.57;;;0.00;99.90;;;;;;5034639;28;20244;-85
2024/01/13 02:20:06;;;;;;;17.40;8.77;;;0.10;99.90;;;;;;5034219;28;20614;-85
2024/01/13 02:22:54;;;;;;;16.07;8.23;;;0.10;99.90;;;;;;5033754;28;20549;-85
2024/01/13 02:25:41;;;;;;;15.23;7.97;;;0.10;99.90;;;;;;5034239;28;20245;-84
2024/01/13 02:28:29;;;;;;;15.17;8.13;;;0.00;99.90;;;;;;5034280;28;20209;-85
2024/01/13 02:31:31;;;;;;;15.33;7.70;;;0.10;99.90;;;;;;5034045;28;20226;-85
2024/01/13 02:34:18;;;;;;;15.70;7.73;;;0.20;99.90;;;;;;5033456;28;20203;-85
2024/01/13 02:37:06;;;;;;;14.60;7.10;;;0.20;99.90;;;;;;5033888;28;20198;-85
2024/01/13 02:39:53;;;;;;;14.10;7.40;;;0.20;99.90;;;;;;5034482;28;20191;-85
2024/01/13 02:42:41;;;;;;;18.17;7.73;;;0.20;99.90;;;;;;5032807;28;20226;-85
2024/01/13 02:45:28;;;;;;;14.30;7.30;;;0.10;99.90;;;;;;5034078;28;20250;-85
2024/01/13 02:48:20;;;;;;;15.37;6.90;;;0.10;99.90;;;;;;5033299;28;20314;-85
2024/01/13 02:51:21;;;;;;;16.03;7.47;;;0.10;99.90;;;;;;5033248;28;20696;-85
2024/01/13 02:54:09;;;;;;;13.77;7.60;;;0.20;99.90;;;;;;5033454;28;20203;-85
2024/01/13 02:56:56;;;;;;;15.57;7.67;;;0.10;99.90;;;;;;5033035;28;20673;-84
2024/01/13 02:59:43;;;;;;;14.53;7.83;;;0.10;99.90;;;;;;5033575;28;20615;-84
2024/01/13 03:02:31;;;;;;;13.50;7.30;;;0.10;99.90;;;;;;5032132;28;20202;-84
2024/01/13 03:05:18;;;;;;;13.73;7.67;;;0.20;99.90;;;;;;5033760;28;20298;-84
2024/01/13 03:08:06;;;;;;;14.83;7.63;;;0.10;99.90;;;;;;5033983;28;20195;-83
2024/01/13 03:10:55;;;;;;;15.37;7.80;;;0.10;99.90;;;;;;5033888;28;20214;-84
2024/01/13 03:13:43;;;;;;;16.70;8.17;;;0.10;99.90;;;;;;5033783;28;20204;-83
2024/01/13 03:16:31;;;;;;;17.07;8.37;;;0.10;99.90;;;;;;5033222;28;20244;-84
2024/01/13 03:19:19;;;;;;;16.93;8.20;;;0.00;99.90;;;;;;5033739;28;20264;-84
2024/01/13 03:22:07;;;;;;;16.47;8.80;;;0.10;99.90;;;;;;5033010;28;20333;-84
2024/01/13 03:24:56;;;;;;;19.47;8.80;;;0.10;99.90;;;;;;5032976;28;20248;-84
2024/01/13 03:27:43;;;;;;;19.73;8.93;;;0.10;99.90;;;;;;5033086;28;20207;-83
2024/01/13 03:30:30;;;;;;;17.03;9.40;;;0.10;99.90;;;;;;5032886;28;20603;-84
2024/01/13 03:33:18;;;;;;;18.90;8.87;;;0.10;99.90;;;;;;5032901;28;20282;-84
2024/01/13 03:36:05;;;;;;;15.77;8.97;;;0.10;99.90;;;;;;5032781;28;20190;-84
2024/01/13 03:38:53;;;;;;;18.70;9.07;;;0.10;99.90;;;;;;5033336;28;20198;-83
2024/01/13 03:41:41;;;;;;;22.13;9.57;;;0.10;99.90;;;;;;5032700;28;20218;-84
2024/01/13 03:44:28;;;;;;;18.03;9.70;;;0.10;99.90;;;;;;5032763;28;20208;-83
2024/01/13 03:47:15;;;;;;;18.47;9.47;;;0.10;99.90;;;;;;5032053;28;20247;-83
2024/01/13 03:50:03;;;;;;;19.37;9.60;;;0.10;99.90;;;;;;5033369;28;20191;-83
2024/01/13 03:52:50;;;;;;;20.67;9.53;;;0.10;99.90;;;;;;5032956;28;20246;-83
2024/01/13 03:55:37;;;;;;;21.30;9.17;;;0.10;99.90;;;;;;5032428;28;20519;-83
2024/01/13 03:58:24;;;;;;;17.03;9.10;;;0.10;99.90;;;;;;5032932;28;20229;-83
2024/01/13 04:01:12;;;;;;;17.53;9.33;;;0.10;99.90;;;;;;5032298;28;20197;-83
2024/01/13 04:03:59;;;;;;;20.57;9.83;;;0.10;99.90;;;;;;5032188;28;20720;-83
2024/01/13 04:06:47;;;;;;;20.37;9.23;;;0.10;99.90;;;;;;5032195;28;20202;-83
2024/01/13 04:09:34;;;;;;;18.93;9.43;;;0.10;99.90;;;;;;5032249;28;20199;-83
2024/01/13 04:12:22;;;;;;;17.73;9.13;;;0.10;99.90;;;;;;5032097;28;20302;-83
2024/01/13 04:15:10;;;;;;;24.00;10.40;;;0.10;99.90;;;;;;5031702;28;20244;-83
2024/01/13 04:17:57;;;;;;;19.43;10.07;;;0.10;99.90;;;;;;5031076;28;20623;-83
2024/01/13 04:20:45;;;;;;;21.33;10.37;;;0.10;99.90;;;;;;5033610;28;20229;-83
2024/01/13 04:23:35;;;;;;;19.63;10.00;;;0.20;99.90;;;;;;5032553;28;20243;-83
2024/01/13 04:26:23;;;;;;;22.97;10.83;;;0.30;99.90;;;;;;5031431;28;20749;-83
2024/01/13 04:29:10;;;;;;;19.50;9.67;;;0.20;99.90;;;;;;5033707;28;20572;-83
2024/01/13 04:31:57;;;;;;;21.83;10.13;;;0.20;99.90;;;;;;5031322;28;20236;-84
2024/01/13 04:34:45;;;;;;;22.10;10.93;;;0.20;99.90;;;;;;5031814;28;20252;-83
2024/01/13 04:37:33;;;;;;;20.03;10.17;;;0.10;99.90;;;;;;5030856;28;20199;-82
2024/01/13 04:40:20;;;;;;;24.23;10.70;;;0.10;99.90;;;;;;5032839;28;20201;-83
2024/01/13 04:43:07;;;;;;;21.93;10.27;;;0.00;99.90;;;;;;5032500;28;20631;-81
2024/01/13 04:45:55;;;;;;;22.23;9.63;;;0.00;99.90;;;;;;5032659;28;20203;-82
2024/01/13 04:48:43;;;;;;;24.00;11.50;;;0.00;99.90;;;;;;5032513;28;20206;-83
2024/01/13 04:51:31;;;;;;;23.77;11.33;;;0.10;99.90;;;;;;5030691;28;20710;-83
2024/01/13 04:54:18;;;;;;;23.07;11.50;;;0.00;99.90;;;;;;5031707;28;20197;-83
2024/01/13 04:57:05;;;;;;;23.30;10.97;;;0.00;99.90;;;;;;5032277;28;20218;-83
2024/01/13 04:59:53;;;;;;;27.93;11.67;;;0.00;99.90;;;;;;5035853;28;20680;-83
2024/01/13 05:02:40;;;;;;;21.07;10.63;;;0.00;99.90;;;;;;5035899;28;20213;-83
2024/01/13 05:05:38;;;;;;;22.17;11.33;;;0.00;99.90;;;;;;5036652;28;20563;-83
2024/01/13 05:08:25;;;;;;;24.77;11.93;;;0.00;99.90;;;;;;5034567;28;20195;-83
2024/01/13 05:11:13;;;;;;;26.90;11.37;;;0.00;99.90;;;;;;5037249;28;20287;-83
2024/01/13 05:14:00;;;;;;;24.57;11.07;;;0.00;99.90;;;;;;5036166;28;20197;-83
2024/01/13 05:16:48;;;;;;;23.03;11.17;;;0.00;99.90;;;;;;5035487;28;20241;-83
2024/01/13 05:19:35;;;;;;;23.03;10.67;;;0.00;99.90;;;;;;5035460;28;20725;-83
2024/01/13 05:22:22;;;;;;;23.63;11.20;;;0.00;99.90;;;;;;5035363;28;20213;-83
2024/01/13 05:25:10;;;;;;;25.30;11.20;;;0.00;99.90;;;;;;5035645;28;20292;-83
2024/01/13 05:27:57;;;;;;;20.53;10.63;;;0.00;99.90;;;;;;5035830;28;20222;-83
2024/01/13 05:30:44;;;;;;;23.10;11.50;;;0.10;99.90;;;;;;5034240;28;20276;-84
2024/01/13 05:33:32;;;;;;;23.73;10.70;;;0.00;99.90;;;;;;5035944;28;20198;-83
2024/01/13 05:36:21;;;;;;;22.77;11.20;;;0.00;99.90;;;;;;5035367;28;20286;-83
2024/01/13 05:39:08;;;;;;;21.50;10.50;;;0.00;99.90;;;;;;5034996;28;20193;-83
2024/01/13 05:41:56;;;;;;;22.73;9.60;;;-0.10;99.90;;;;;;5035524;28;20303;-82
2024/01/13 05:44:43;;;;;;;23.83;11.13;;;-0.10;99.90;;;;;;5033539;28;20205;-83
2024/01/13 05:47:31;;;;;;;20.23;10.30;;;-0.10;99.90;;;;;;5035467;28;20207;-83
2024/01/13 05:50:18;;;;;;;20.87;10.57;;;0.00;99.90;;;;;;5034961;28;20203;-83
2024/01/13 05:53:06;;;;;;;22.03;10.30;;;-0.10;99.90;;;;;;5035271;28;20215;-83
2024/01/13 05:55:53;;;;;;;22.90;10.70;;;-0.10;99.90;;;;;;5034717;28;20207;-83
2024/01/13 05:58:41;;;;;;;19.27;9.63;;;-0.10;99.90;;;;;;5034285;28;20626;-84
2024/01/13 06:01:29;;;;;;;21.27;9.60;;;-0.10;99.90;;;;;;5034575;28;20201;-83
2024/01/13 06:04:18;;;;;;;20.10;9.50;;;-0.10;99.90;;;;;;5034464;28;20234;-83
2024/01/13 06:07:06;;;;;;;21.73;9.57;;;-0.10;99.90;;;;;;5034069;28;20195;-84
2024/01/13 06:09:53;;;;;;;23.40;9.63;;;-0.10;99.90;;;;;;5033644;28;20283;-83
2024/01/13 06:12:47;;;;;;;24.67;10.40;;;-0.10;99.90;;;;;;5034391;28;20608;-83
2024/01/13 06:15:35;;;;;;;21.67;10.47;;;-0.10;99.90;;;;;;5034984;28;20273;-83
2024/01/13 06:18:23;;;;;;;22.07;10.57;;;-0.10;99.90;;;;;;5036326;28;20198;-83
2024/01/13 06:21:10;;;;;;;20.93;9.80;;;-0.10;99.90;;;;;;5033306;28;20202;-83
2024/01/13 06:23:59;;;;;;;22.87;10.07;;;0.00;99.90;;;;;;5034286;28;20198;-83
2024/01/13 06:26:46;;;;;;;22.97;10.20;;;0.00;99.90;;;;;;5033053;28;20310;-83
2024/01/13 06:29:34;;;;;;;22.47;9.70;;;0.00;99.90;;;;;;5034199;28;20205;-83
2024/01/13 06:32:21;;;;;;;23.47;10.77;;;0.00;99.90;;;;;;5033686;28;20692;-83
2024/01/13 06:35:09;;;;;;;23.77;10.27;;;0.00;99.90;;;;;;5034333;28;20195;-83
2024/01/13 06:37:56;;;;;;;22.03;10.30;;;0.00;99.90;;;;;;5034219;28;20573;-82
2024/01/13 06:40:44;;;;;;;24.03;10.30;;;-0.10;99.90;;;;;;5035023;28;20206;-83
2024/01/13 06:43:31;;;;;;;21.67;10.10;;;-0.10;99.90;;;;;;5033873;28;20296;-84
2024/01/13 06:46:18;;;;;;;23.80;10.63;;;-0.10;99.90;;;;;;5034031;28;20194;-83
2024/01/13 06:49:05;;;;;;;20.17;10.03;;;-0.10;99.90;;;;;;5034902;28;20228;-83
2024/01/13 06:51:53;;;;;;;23.87;10.53;;;0.00;99.90;;;;;;5033507;28;21046;-83
2024/01/13 06:54:41;;;;;;;22.80;10.80;;;0.00;99.90;;;;;;5034856;28;20784;-83
2024/01/13 06:57:28;;;;;;;23.17;11.03;;;0.00;99.90;;;;;;5032436;28;20218;-83
2024/01/13 07:00:15;;;;;;;25.20;10.47;;;0.00;99.90;;;;;;5034124;28;20199;-83
2024/01/13 07:03:03;;;;;;;24.83;10.77;;;0.00;99.90;;;;;;5033336;28;20195;-83
2024/01/13 07:05:51;;;;;;;29.17;10.93;;;0.00;99.90;;;;;;5032438;28;20583;-83
2024/01/13 07:08:41;;;;;;;24.33;10.63;;;0.10;99.90;;;;;;5033019;28;20200;-84
2024/01/13 07:11:28;;;;;;;26.23;10.53;;;0.10;99.90;;;;;;5033984;28;20209;-83
2024/01/13 07:14:15;;;;;;;24.17;10.13;;;0.10;99.90;;;;;;5033960;28;20277;-83
2024/01/13 07:17:03;;;;;;;23.23;9.83;;;0.10;99.90;;;;;;5033226;28;20682;-83
2024/01/13 07:19:51;;;;;;;27.13;10.97;;;0.00;99.90;;;;;;5033242;28;20274;-84
2024/01/13 07:22:38;;;;;;;25.80;10.67;;;0.00;99.90;;;;;;5031122;28;20210;-84
2024/01/13 07:25:26;;;;;;;22.50;10.37;;;0.00;99.90;;;;;;5033096;28;20203;-83
2024/01/13 07:28:13;;;;;;;26.33;10.87;;;0.00;99.90;;;;;;5034806;28;20219;-84
2024/01/13 07:31:00;;;;;;;26.87;11.07;;;0.10;99.90;;;;;;5032460;28;20233;-83
2024/01/13 07:33:48;;;;;;;26.43;10.73;;;0.20;99.90;;;;;;5032777;28;20218;-82
2024/01/13 07:36:36;;;;;;;28.07;12.30;;;0.10;99.90;;;;;;5033415;28;20202;-83
2024/01/13 07:39:23;;;;;;;26.27;11.27;;;0.20;99.90;;;;;;5032781;28;20650;-83
2024/01/13 07:42:11;;;;;;;27.57;11.80;;;0.10;99.90;;;;;;5032587;28;20633;-83
2024/01/13 07:44:59;;;;;;;30.80;12.17;;;0.10;99.90;;;;;;5033826;28;20193;-83
2024/01/13 07:47:46;;;;;;;26.43;11.23;;;0.10;99.90;;;;;;5033712;28;20208;-83
2024/01/13 07:50:34;;;;;;;25.77;11.37;;;0.10;99.90;;;;;;5032724;28;20250;-83
2024/01/13 07:53:22;;;;;;;29.90;11.80;;;0.10;99.90;;;;;;5032432;28;20690;-83
2024/01/13 07:56:09;;;;;;;31.77;11.77;;;0.10;99.90;;;;;;5031974;28;20633;-84
2024/01/13 07:58:57;;;;;;;30.00;12.17;;;0.10;99.90;;;;;;5032972;28;20196;-83
2024/01/13 08:01:45;;;;;;;34.47;12.73;;;0.10;99.90;;;;;;5031469;28;20243;-83
2024/01/13 08:04:32;;;;;;;31.60;12.17;;;0.10;99.90;;;;;;5032618;28;20224;-83
2024/01/13 08:07:22;;;;;;;29.53;12.20;;;0.10;99.90;;;;;;5032846;28;20200;-83
2024/01/13 08:10:10;;;;;;;33.03;13.27;;;0.10;99.90;;;;;;5033046;28;20280;-84
2024/01/13 08:13:00;;;;;;;27.53;12.17;;;0.10;99.90;;;;;;5032888;28;20261;-83
2024/01/13 08:15:48;;;;;;;30.63;12.07;;;0.10;99.90;;;;;;5031486;28;20222;-83
2024/01/13 08:18:36;;;;;;;31.27;11.97;;;0.20;99.90;;;;;;5033887;28;20220;-84
2024/01/13 08:21:24;;;;;;;32.27;12.80;;;0.30;99.90;;;;;;5032001;28;20203;-83
2024/01/13 08:24:25;;;;;;;32.50;12.40;;;0.40;99.90;;;;;;5032104;28;20659;-84
2024/01/13 08:27:12;;;;;;;29.50;12.23;;;0.30;99.90;;;;;;5031760;28;20234;-84
2024/01/13 08:30:00;;;;;;;32.00;12.90;;;0.30;99.90;;;;;;5031999;28;20220;-84
2024/01/13 08:32:47;;;;;;;29.30;12.47;;;0.40;99.90;;;;;;5031629;28;20221;-84
2024/01/13 08:35:35;;;;;;;31.20;12.67;;;0.50;99.90;;;;;;5033479;28;20201;-83
2024/01/13 08:38:22;;;;;;;28.83;12.63;;;0.50;99.90;;;;;;5031307;28;20201;-84
2024/01/13 08:41:09;;;;;;;27.37;12.20;;;0.40;99.90;;;;;;5033487;28;20210;-83
2024/01/13 08:44:03;;;;;;;27.77;12.07;;;0.40;99.90;;;;;;5033306;28;20588;-83
2024/01/13 08:46:50;;;;;;;31.33;12.90;;;0.30;99.90;;;;;;5031642;28;20648;-83
2024/01/13 08:49:39;;;;;;;29.53;12.27;;;0.40;99.90;;;;;;5033315;28;20217;-84
2024/01/13 08:52:27;;;;;;;27.63;12.13;;;0.40;99.90;;;;;;5032658;28;20299;-83
2024/01/13 08:55:18;;;;;;;27.40;11.17;;;0.40;99.90;;;;;;5032022;28;20206;-83
2024/01/13 08:58:06;;;;;;;24.73;11.03;;;0.40;99.90;;;;;;5031561;28;20226;-83
2024/01/13 09:00:54;;;;;;;27.27;11.93;;;0.40;99.90;;;;;;5031753;28;20648;-83
2024/01/13 09:03:42;;;;;;;24.13;11.27;;;0.40;99.90;;;;;;5031377;28;20239;-84
2024/01/13 09:06:30;;;;;;;28.17;11.53;;;0.40;99.90;;;;;;5031631;28;20684;-84
2024/01/13 09:09:17;;;;;;;27.23;11.50;;;0.40;99.90;;;;;;5032093;28;20322;-83
2024/01/13 09:12:04;;;;;;;24.60;11.00;;;0.40;99.90;;;;;;5029743;28;20215;-83
2024/01/13 09:14:52;;;;;;;25.40;10.23;;;0.50;99.90;;;;;;5030525;28;20196;-82
2024/01/13 09:17:39;;;;;;;23.90;10.93;;;0.40;99.90;;;;;;5031157;28;20574;-83
2024/01/13 09:20:26;;;;;;;23.53;10.37;;;0.40;99.90;;;;;;5031941;28;20336;-81
2024/01/13 09:23:14;;;;;;;27.10;10.67;;;0.30;99.90;;;;;;5031902;28;20718;-82
2024/01/13 09:26:04;;;;;;;22.00;10.33;;;0.40;99.90;;;;;;5031209;28;20274;-82
2024/01/13 09:28:52;;;;;;;21.20;10.67;;;0.30;99.90;;;;;;5032946;28;20252;-82
2024/01/13 09:31:39;;;;;;;22.73;9.83;;;0.30;99.90;;;;;;5032965;28;20260;-83
2024/01/13 09:34:29;;;;;;;24.50;10.47;;;0.40;99.90;;;;;;5030506;28;20551;-84
2024/01/13 09:37:17;;;;;;;26.67;11.07;;;0.40;99.90;;;;;;5031306;28;20256;-82
2024/01/13 09:40:06;;;;;;;24.37;10.63;;;0.30;99.90;;;;;;5031193;28;20211;-82
2024/01/13 09:43:21;;;;;;;26.70;10.93;;;0.20;99.90;;;;;;5031429;28;20225;-83
2024/01/13 09:46:09;;;;;;;28.20;11.37;;;0.10;99.90;;;;;;5033890;28;20197;-82
2024/01/13 09:48:58;;;;;;;28.67;11.10;;;0.20;99.90;;;;;;5035998;28;20201;-83
2024/01/13 09:51:46;;;;;;;28.63;11.60;;;0.10;99.90;;;;;;5034355;28;20197;-83
2024/01/13 09:54:35;;;;;;;26.60;11.13;;;0.20;99.90;;;;;;5035500;28;20654;-83
2024/01/13 09:57:24;;;;;;;29.97;11.53;;;0.20;99.90;;;;;;5033611;28;20606;-83
2024/01/13 10:00:13;;;;;;;25.67;11.57;;;0.20;99.90;;;;;;5035724;28;20215;-83
2024/01/13 10:03:00;;;;;;;29.93;11.60;;;0.10;99.90;;;;;;5035768;28;20198;-85
2024/01/13 10:05:51;;;;;;;27.57;11.77;;;0.00;99.90;;;;;;5034582;28;20199;-85
2024/01/13 10:08:39;;;;;;;30.60;12.10;;;0.10;99.90;;;;;;5036090;28;20202;-85
2024/01/13 10:11:27;;;;;;;33.07;12.63;;;0.00;99.90;;;;;;5035501;28;20212;-86
2024/01/13 10:14:17;;;;;;;27.53;11.40;;;-0.10;99.90;;;;;;5035123;28;20215;-84
2024/01/13 10:17:06;;;;;;;31.17;11.90;;;-0.10;99.90;;;;;;5034414;28;20197;-83
2024/01/13 10:19:55;;;;;;;28.50;12.37;;;-0.10;99.90;;;;;;5033813;28;20202;-84
2024/01/13 10:22:43;;;;;;;30.00;12.17;;;0.00;99.90;;;;;;5034760;28;20197;-84
2024/01/13 10:25:30;;;;;;;29.87;12.40;;;0.00;99.90;;;;;;5034794;28;20600;-84
2024/01/13 10:28:18;;;;;;;28.27;12.93;;;-0.10;99.90;;;;;;5034161;28;20320;-85
2024/01/13 10:31:05;;;;;;;29.87;12.90;;;-0.10;99.90;;;;;;5032739;28;20571;-85
2024/01/13 10:33:53;;;;;;;31.33;12.83;;;-0.10;99.90;;;;;;5034553;28;20219;-85
2024/01/13 10:36:40;;;;;;;32.93;13.83;;;-0.10;99.90;;;;;;5034666;28;20218;-85
2024/01/13 10:39:28;;;;;;;32.23;12.77;;;-0.10;99.90;;;;;;5033932;28;20195;-85
2024/01/13 10:42:19;;;;;;;31.63;12.70;;;-0.20;99.90;;;;;;5035649;28;20218;-84
2024/01/13 10:45:09;;;;;;;29.50;13.00;;;-0.10;99.90;;;;;;5033131;28;20694;-86
2024/01/13 10:48:04;;;;;;;31.60;13.30;;;-0.20;99.90;;;;;;5036028;28;20193;-86
2024/01/13 10:50:53;;;;;;;33.70;14.57;;;-0.20;99.90;;;;;;5035639;28;20209;-85
2024/01/13 10:53:43;;;;;;;31.27;13.43;;;-0.20;99.90;;;;;;5034077;28;20222;-85
2024/01/13 10:56:31;;;;;;;30.60;14.13;;;-0.20;99.90;;;;;;5034162;28;20243;-85
2024/01/13 10:59:19;;;;;;;33.97;14.17;;;-0.20;99.90;;;;;;5034683;28;20204;-85
2024/01/13 11:02:11;;;;;;;34.27;13.83;;;-0.30;99.90;;;;;;5032422;28;20204;-84
2024/01/13 11:05:01;;;;;;;34.87;14.50;;;-0.30;99.90;;;;;;5033446;28;20724;-86
2024/01/13 11:07:49;;;;;;;32.23;13.30;;;-0.30;99.90;;;;;;5034052;28;20673;-86
2024/01/13 11:10:41;;;;;;;32.97;13.50;;;-0.40;99.90;;;;;;5034501;28;20273;-84
2024/01/13 11:13:34;;;;;;;36.30;15.17;;;-0.30;99.90;;;;;;5033815;28;20746;-84
2024/01/13 11:16:25;;;;;;;30.70;13.97;;;-0.30;99.90;;;;;;5033765;28;20662;-84
2024/01/13 11:19:12;;;;;;;28.90;12.73;;;-0.40;99.90;;;;;;5033776;28;20220;-84
2024/01/13 11:21:59;;;;;;;32.73;13.00;;;-0.30;99.90;;;;;;5032166;28;20278;-83
2024/01/13 11:24:48;;;;;;;27.73;12.87;;;-0.30;99.90;;;;;;5033901;28;20190;-83
2024/01/13 11:27:35;;;;;;;32.57;12.97;;;-0.40;99.90;;;;;;5032174;28;20586;-84
2024/01/13 11:30:39;;;;;;;31.60;12.57;;;-0.40;99.90;;;;;;5032955;28;20243;-84
2024/01/13 11:33:29;;;;;;;27.73;13.10;;;-0.40;99.90;;;;;;5032349;28;20220;-84
2024/01/13 11:36:17;;;;;;;33.53;12.57;;;-0.30;99.90;;;;;;5032854;28;20567;-84
2024/01/13 11:39:12;;;;;;;29.77;12.20;;;-0.30;99.90;;;;;;5032873;28;20206;-85
2024/01/13 11:42:03;;;;;;;29.50;12.27;;;-0.30;99.90;;;;;;5033322;28;20215;-83
2024/01/13 11:44:50;;;;;;;33.20;12.90;;;-0.20;99.90;;;;;;5033259;28;20576;-84
2024/01/13 11:47:38;;;;;;;27.60;11.87;;;-0.20;99.90;;;;;;5032777;28;20213;-84
2024/01/13 11:50:47;;;;;;;31.50;12.60;;;-0.20;99.90;;;;;;5033252;28;20323;-85
2024/01/13 11:53:39;;;;;;;30.60;13.03;;;-0.20;99.90;;;;;;5032569;28;20587;-85
2024/01/13 11:56:28;;;;;;;30.33;13.47;;;-0.30;99.90;;;;;;5032688;28;20214;-85
2024/01/13 11:59:16;;;;;;;29.00;12.17;;;-0.20;99.90;;;;;;5032542;28;20200;-82
2024/01/13 12:02:04;;;;;;;26.20;11.73;;;-0.20;99.90;;;;;;5034073;28;20676;-83
2024/01/13 12:04:52;;;;;;;25.87;11.90;;;-0.20;99.90;;;;;;5032676;28;20637;-83
2024/01/13 12:07:39;;;;;;;25.00;10.67;;;-0.20;99.90;;;;;;5033557;28;20655;-82
2024/01/13 12:10:27;;;;;;;26.23;11.00;;;-0.20;99.90;;;;;;5032947;28;20319;-83
2024/01/13 12:13:15;;;;;;;28.50;11.50;;;-0.20;99.90;;;;;;5032591;28;20321;-83
2024/01/13 12:16:05;;;;;;;22.00;10.13;;;-0.10;99.90;;;;;;5032452;28;20214;-82
2024/01/13 12:18:53;;;;;;;23.20;10.27;;;-0.10;99.90;;;;;;5031060;28;20195;-83
2024/01/13 12:21:41;;;;;;;21.87;9.80;;;-0.10;99.90;;;;;;5032161;28;20194;-82
2024/01/13 12:24:32;;;;;;;21.97;10.00;;;-0.20;99.90;;;;;;5031906;28;20681;-83
2024/01/13 12:27:19;;;;;;;21.60;9.67;;;-0.30;99.90;;;;;;5032488;28;20222;-83
2024/01/13 12:30:07;;;;;;;23.53;10.07;;;-0.30;99.90;;;;;;5032208;28;20676;-84
2024/01/13 12:32:56;;;;;;;21.77;9.27;;;-0.20;99.90;;;;;;5031975;28;20201;-84
2024/01/13 12:35:43;;;;;;;21.63;9.90;;;-0.20;99.90;;;;;;5032902;28;20570;-83
2024/01/13 12:38:31;;;;;;;23.90;10.00;;;-0.30;99.90;;;;;;5032102;28;20366;-83
2024/01/13 12:41:18;;;;;;;26.07;10.40;;;-0.30;99.90;;;;;;5032252;28;20694;-82
2024/01/13 12:44:06;;;;;;;27.40;11.63;;;-0.30;99.90;;;;;;5031740;28;20198;-82
2024/01/13 12:46:57;;;;;;;24.73;10.07;;;-0.30;99.90;;;;;;5034594;28;20298;-82
2024/01/13 12:49:45;;;;;;;25.40;11.17;;;-0.30;99.90;;;;;;5033854;28;20205;-82
2024/01/13 12:52:32;;;;;;;24.80;11.13;;;-0.30;99.90;;;;;;5033319;28;20246;-82
2024/01/13 12:55:20;;;;;;;25.33;10.83;;;-0.30;99.90;;;;;;5032125;28;20200;-82
2024/01/13 12:58:07;;;;;;;26.30;11.13;;;-0.30;99.90;;;;;;5031605;28;20669;-83
2024/01/13 13:00:55;;;;;;;28.27;10.13;;;-0.30;99.90;;;;;;5031733;28;20200;-84
2024/01/13 13:03:43;;;;;;;25.03;11.13;;;-0.30;99.90;;;;;;5031099;28;20225;-83
2024/01/13 13:06:31;;;;;;;24.53;10.80;;;-0.30;99.90;;;;;;5031636;28;20198;-84
2024/01/13 13:09:19;;;;;;;25.23;10.33;;;-0.30;99.90;;;;;;5031647;28;20197;-83
2024/01/13 13:12:07;;;;;;;28.33;11.63;;;-0.30;99.90;;;;;;5032312;28;20694;-83
2024/01/13 13:14:55;;;;;;;30.57;12.13;;;-0.30;99.90;;;;;;5031339;28;20259;-82
2024/01/13 13:17:58;;;;;;;26.63;12.23;;;-0.20;99.90;;;;;;5031338;28;20202;-83
2024/01/13 13:20:47;;;;;;;28.50;12.00;;;-0.20;99.90;;;;;;5034321;28;20212;-86
2024/01/13 13:23:34;;;;;;;30.63;12.80;;;-0.30;99.90;;;;;;5035857;28;20279;-87
2024/01/13 13:26:22;;;;;;;31.47;12.90;;;-0.30;99.90;;;;;;5036392;28;20266;-85
2024/01/13 13:29:10;;;;;;;32.13;13.00;;;-0.30;99.90;;;;;;5036126;28;20218;-85
2024/01/13 13:31:58;;;;;;;32.50;12.93;;;-0.30;99.90;;;;;;5036983;28;20198;-85
2024/01/13 13:34:45;;;;;;;29.50;12.33;;;-0.30;99.90;;;;;;5035348;28;20227;-84
2024/01/13 13:37:36;;;;;;;29.33;12.13;;;-0.30;99.90;;;;;;5036021;28;20207;-85
2024/01/13 13:40:27;;;;;;;28.10;12.57;;;-0.30;99.90;;;;;;5036082;28;20205;-84
2024/01/13 13:43:16;;;;;;;25.47;10.30;;;-0.30;99.90;;;;;;5034455;28;20190;-84
2024/01/13 13:46:05;;;;;;;22.50;9.40;;;-0.20;99.90;;;;;;5037589;28;20199;-85
2024/01/13 13:48:52;;;;;;;22.10;10.03;;;-0.20;99.90;;;;;;5037300;28;20226;-85
2024/01/13 13:51:40;;;;;;;19.87;9.47;;;-0.10;99.90;;;;;;5039023;28;20201;-84
2024/01/13 13:54:28;;;;;;;17.67;9.10;;;-0.20;99.90;;;;;;5034191;28;20360;-85
2024/01/13 13:57:15;;;;;;;20.53;8.63;;;-0.10;99.90;;;;;;5034494;28;20674;-84
2024/01/13 14:00:03;;;;;;;17.77;8.73;;;-0.10;99.90;;;;;;5033356;28;20331;-83
2024/01/13 14:02:51;;;;;;;16.10;8.20;;;-0.10;99.90;;;;;;5034092;28;20273;-84
2024/01/13 14:05:39;;;;;;;19.40;8.27;;;-0.10;99.90;;;;;;5034598;28;20663;-83
2024/01/13 14:08:27;;;;;;;15.73;7.63;;;-0.10;99.90;;;;;;5034557;28;20679;-84
2024/01/13 14:11:14;;;;;;;16.00;7.53;;;0.00;99.90;;;;;;5034420;28;20365;-83
2024/01/13 14:14:03;;;;;;;15.97;7.43;;;0.00;99.90;;;;;;5034529;28;20216;-83
2024/01/13 14:16:50;;;;;;;15.97;7.47;;;0.00;99.90;;;;;;5040182;28;20282;-84
2024/01/13 14:19:38;;;;;;;14.70;7.20;;;0.10;99.90;;;;;;5057593;28;20222;-83
2024/01/13 14:22:25;;;;;;;14.37;6.73;;;0.10;99.90;;;;;;5056033;28;20202;-82
2024/01/13 14:25:13;;;;;;;13.33;7.00;;;0.00;99.90;;;;;;5056376;28;20263;-82